Decoded Metar for EBBE (BEAUVECHAIN in BELGIUM) (IATA:N/A) | Meteo·Mobile Aviation Weather
aviador You're here:

EBBE Decoded Metar

BEAUVECHAIN in BELGIUM
Report Time2019-08-24 12:55:00
UTC Time2019-08-24 13:10:16
Flight Rules vfr VFR
Wind130° at 06 kt
W.Decomp.*RWY 04: 0.1 kt HW 6.0 kt RCW
Visibility9999 m
Phenomena:N/A
Clouds:N/A
Expected CloudBase > 6,400 ft AGL from Temp-Dew spread
CeilingNone
Temp28°C (ISA +14)
Dew Point12°C (37% RH)
Heat Index27.5°C
AAT26.4°C
QNH1020 hPa
Density Alt1,965 ft
Elevation417 ft
Report Wrong Elevation
Raw Report
METAR EBBE 241255Z AUTO 13006KT 9999 NCD 28/12 Q1020 BLU=

Extra information for EBBE:More info

Metar Taf Metar & Taf Last 4 Metars F.Rules Stats Wind Profile Meteogram Temp Stats Airport Information Weather charts Add Link Nearby VenuesMetar ALERT Operation Metar Decoded Social comments